Esperance Aerodrome, Australia
Current Conditions -  °F | °C
As of 10:00 PM on Thursday 30 Oct 2014 (Local Time) from YESP Reporting Station
Broken Clouds Broken Clouds  
Wind Chill: 57°   Ceiling: 2200
Heat Index: 57°   Visibility: 6mi
Dew Point: 54°   Wind: 5mph
Humidity: 88%   Direction: 170°S
Pressure: 29.85"   Gusts: NA
Location:  33.68°S, 121.83°E
Report Text: YESP 301400Z AUTO 17004KT 9999 // BKN022 14/12 Q1011
Loading
Personal Weather Stations






























Interactive Weather Map
Tropical Storm Tracking
New forecast layout! Learn more

10-Day Weather Forecast

Advertisements
Track Severe Weather on mobile